createdAt,value
2018-07-14T00:03:10.528Z,9.63
2018-07-14T00:06:43.808Z,11.70
2018-07-14T00:10:17.041Z,9.67
2018-07-14T00:13:50.295Z,11.20
2018-07-14T00:17:23.540Z,9.17
2018-07-14T00:20:56.795Z,11.00
2018-07-14T00:24:30.127Z,9.77
2018-07-14T00:28:03.304Z,11.67
2018-07-14T00:31:36.548Z,10.53
2018-07-14T00:35:09.807Z,11.57
2018-07-14T00:38:43.040Z,11.50
2018-07-14T00:42:16.307Z,11.30
2018-07-14T00:45:49.637Z,11.00
2018-07-14T00:49:22.897Z,12.53
2018-07-14T00:52:56.148Z,12.10
2018-07-14T00:56:29.396Z,14.10
2018-07-14T01:00:02.631Z,13.03
2018-07-14T01:03:35.861Z,14.00
2018-07-14T01:07:09.107Z,12.30
2018-07-14T01:10:42.339Z,14.77
2018-07-14T01:14:15.598Z,16.00
2018-07-14T01:17:48.866Z,14.50
2018-07-14T01:21:22.084Z,15.67
2018-07-14T01:24:55.324Z,15.40
2018-07-14T01:28:28.556Z,16.77
2018-07-14T01:32:01.800Z,15.80
2018-07-14T01:35:35.034Z,14.63
2018-07-14T01:39:09.000Z,16.10
2018-07-14T01:42:42.235Z,15.83
2018-07-14T01:46:15.477Z,15.20
2018-07-14T01:49:48.479Z,16.10
2018-07-14T01:53:21.453Z,17.00
2018-07-14T01:56:54.700Z,18.00
2018-07-14T02:00:27.940Z,15.10
2018-07-14T02:04:01.184Z,15.73
2018-07-14T02:07:34.415Z,16.50
2018-07-14T02:11:07.679Z,16.90
2018-07-14T02:14:40.968Z,16.00
2018-07-14T02:18:14.212Z,15.53
2018-07-14T02:21:47.459Z,17.00
2018-07-14T02:25:21.087Z,16.80
2018-07-14T02:28:54.788Z,14.93
2018-07-14T02:32:27.780Z,17.97
2018-07-14T02:36:01.027Z,16.67
2018-07-14T02:39:34.277Z,16.03
2018-07-14T02:43:07.255Z,15.20
2018-07-14T02:46:40.520Z,16.17
2018-07-14T02:50:13.747Z,16.13
2018-07-14T02:53:47.015Z,14.73
2018-07-14T02:57:20.259Z,14.23
2018-07-14T03:00:53.493Z,15.27
2018-07-14T03:04:26.736Z,15.03
2018-07-14T03:07:59.992Z,15.10
2018-07-14T03:11:33.217Z,14.03
2018-07-14T03:15:06.505Z,15.50
2018-07-14T03:18:39.751Z,14.70
2018-07-14T03:22:13.017Z,14.50
2018-07-14T03:25:46.263Z,15.13
2018-07-14T03:29:19.508Z,15.30
2018-07-14T03:32:52.774Z,15.17
2018-07-14T03:36:25.999Z,14.90
2018-07-14T03:39:59.254Z,14.97
2018-07-14T03:43:32.499Z,15.30
2018-07-14T03:47:05.992Z,15.60
2018-07-14T03:50:39.228Z,13.97
2018-07-14T03:54:12.487Z,15.43
2018-07-14T03:57:45.493Z,17.10
2018-07-14T04:01:18.751Z,15.87
2018-07-14T04:04:51.987Z,14.80
2018-07-14T04:08:25.230Z,14.87
2018-07-14T04:11:58.459Z,16.30
2018-07-14T04:15:31.719Z,15.00
2018-07-14T04:19:04.965Z,14.27
2018-07-14T04:22:38.201Z,15.20
2018-07-14T04:26:11.436Z,15.10
2018-07-14T04:29:44.688Z,14.10
2018-07-14T04:33:17.940Z,13.30
2018-07-14T04:36:51.513Z,15.13
2018-07-14T04:40:24.741Z,12.80
2018-07-14T04:43:57.981Z,12.53
2018-07-14T04:47:30.977Z,14.60
2018-07-14T04:51:04.536Z,14.60
2018-07-14T04:54:37.779Z,14.60
2018-07-14T04:58:10.788Z,14.20
2018-07-14T05:01:44.013Z,14.70
2018-07-14T05:05:17.259Z,13.13
2018-07-14T05:08:50.499Z,14.93
2018-07-14T05:12:23.754Z,14.57
2018-07-14T05:15:56.980Z,14.37
2018-07-14T05:19:30.237Z,15.17
2018-07-14T05:23:03.504Z,14.93
2018-07-14T05:26:36.757Z,14.40
2018-07-14T05:30:09.993Z,14.10
2018-07-14T05:33:43.248Z,13.13
2018-07-14T05:37:16.507Z,14.67
2018-07-14T05:40:49.804Z,13.03
2018-07-14T05:44:23.033Z,12.27
2018-07-14T05:47:56.275Z,12.10
2018-07-14T05:51:29.288Z,12.23
2018-07-14T05:55:02.527Z,10.30
2018-07-14T05:58:35.771Z,11.10
2018-07-14T06:02:09.048Z,12.30
2018-07-14T06:05:42.277Z,12.80
2018-07-14T06:09:15.533Z,11.57
2018-07-14T06:12:48.779Z,12.30
2018-07-14T06:16:22.032Z,12.07
2018-07-14T06:19:55.264Z,11.13
2018-07-14T06:23:28.527Z,11.90
2018-07-14T06:27:01.828Z,11.90
2018-07-14T06:30:35.076Z,12.67
2018-07-14T06:34:08.299Z,11.23
2018-07-14T06:37:41.539Z,12.13
2018-07-14T06:41:14.787Z,11.57
2018-07-14T06:44:48.034Z,13.00
2018-07-14T06:48:21.280Z,12.13
2018-07-14T06:51:54.519Z,11.60
2018-07-14T06:55:27.768Z,11.10
2018-07-14T06:59:00.997Z,11.80
2018-07-14T07:02:34.251Z,11.33
2018-07-14T07:06:07.280Z,11.83
2018-07-14T07:09:40.575Z,11.53
2018-07-14T07:13:13.820Z,12.77
2018-07-14T07:16:47.069Z,12.60
2018-07-14T07:20:20.316Z,12.60
2018-07-14T07:23:53.549Z,11.93
2018-07-14T07:27:26.788Z,11.23
2018-07-14T07:31:00.060Z,11.70
2018-07-14T07:34:33.330Z,13.30
2018-07-14T07:38:06.573Z,11.40
2018-07-14T07:41:39.808Z,11.63
2018-07-14T07:45:13.092Z,10.87
2018-07-14T07:48:46.332Z,11.67
2018-07-14T07:52:19.578Z,10.07
2018-07-14T07:55:52.824Z,11.73
2018-07-14T07:59:26.072Z,11.67
2018-07-14T08:02:59.305Z,10.63
2018-07-14T08:06:32.592Z,10.20
2018-07-14T08:10:05.840Z,10.40
2018-07-14T08:13:39.106Z,9.87
2018-07-14T08:17:12.357Z,9.77
2018-07-14T08:20:45.588Z,9.90
2018-07-14T08:24:18.848Z,8.87
2018-07-14T08:27:52.093Z,10.37
2018-07-14T08:31:25.346Z,9.20
2018-07-14T08:34:58.625Z,9.70
2018-07-14T08:38:31.891Z,10.57
2018-07-14T08:42:06.012Z,9.70
2018-07-14T08:45:39.266Z,9.90
2018-07-14T08:49:13.414Z,9.87
2018-07-14T08:52:46.687Z,9.50
2018-07-14T08:56:19.920Z,9.40
2018-07-14T08:59:53.167Z,9.87
2018-07-14T09:03:26.489Z,8.90
2018-07-14T09:06:59.724Z,10.37
2018-07-14T09:10:32.971Z,10.73
2018-07-14T09:14:06.256Z,9.60
2018-07-14T09:17:39.516Z,9.00
2018-07-14T09:21:12.768Z,8.67
2018-07-14T09:24:46.021Z,9.17
2018-07-14T09:28:19.272Z,8.50
2018-07-14T09:31:52.500Z,9.40
2018-07-14T09:35:25.773Z,8.70
2018-07-14T09:38:59.022Z,8.93
2018-07-14T09:42:32.252Z,8.60
2018-07-14T09:46:05.505Z,8.93
2018-07-14T09:49:38.773Z,8.23
2018-07-14T09:53:12.016Z,8.63
2018-07-14T09:56:45.243Z,7.60
2018-07-14T10:00:23.929Z,8.43
2018-07-14T10:03:57.180Z,9.20
2018-07-14T10:07:30.396Z,8.20
2018-07-14T10:11:03.641Z,7.83
2018-07-14T10:14:36.889Z,8.10
2018-07-14T10:18:10.136Z,7.23
2018-07-14T10:21:43.372Z,7.67
2018-07-14T10:25:16.846Z,6.30
2018-07-14T10:28:49.879Z,6.20
2018-07-14T10:32:23.131Z,6.60
2018-07-14T10:35:56.493Z,6.90
2018-07-14T10:39:29.788Z,5.23
2018-07-14T10:43:03.052Z,4.90
2018-07-14T10:46:36.347Z,4.60
2018-07-14T10:50:09.584Z,4.83
2018-07-14T10:53:42.900Z,4.73
2018-07-14T10:57:16.128Z,4.33
2018-07-14T11:00:49.376Z,4.27
2018-07-14T11:04:22.639Z,4.63
2018-07-14T11:07:55.598Z,6.00
2018-07-14T11:11:28.826Z,5.20
2018-07-14T11:15:02.079Z,4.30
2018-07-14T11:18:35.330Z,5.60
2018-07-14T11:22:08.573Z,5.37
2018-07-14T11:25:41.839Z,5.83
2018-07-14T11:29:15.108Z,6.80
2018-07-14T11:32:48.380Z,6.60
2018-07-14T11:36:21.645Z,7.80
2018-07-14T11:39:54.895Z,7.30
2018-07-14T11:43:28.190Z,7.40
2018-07-14T11:47:01.480Z,7.30
2018-07-14T11:50:34.709Z,7.20
2018-07-14T11:54:07.988Z,5.80
2018-07-14T11:57:41.253Z,7.17
2018-07-14T12:01:14.505Z,6.60
2018-07-14T12:04:47.760Z,7.40
2018-07-14T12:08:21.023Z,6.30
2018-07-14T12:11:54.297Z,5.87
2018-07-14T12:15:27.582Z,6.20
2018-07-14T12:19:01.056Z,7.10
2018-07-14T12:22:34.311Z,5.70
2018-07-14T12:26:07.572Z,6.37
2018-07-14T12:29:40.904Z,6.20
2018-07-14T12:33:14.163Z,6.20
2018-07-14T12:36:47.479Z,6.60
2018-07-14T12:40:20.676Z,6.83
2018-07-14T12:43:53.917Z,6.23
2018-07-14T12:47:27.163Z,6.80
2018-07-14T12:51:00.431Z,6.40
2018-07-14T12:54:33.663Z,7.37
2018-07-14T12:58:07.084Z,6.70
2018-07-14T13:01:40.394Z,6.83
2018-07-14T13:05:13.644Z,7.77
2018-07-14T13:08:46.899Z,7.30
2018-07-14T13:12:20.144Z,7.00
2018-07-14T13:15:53.402Z,5.90
2018-07-14T13:19:26.653Z,6.60
2018-07-14T13:22:59.912Z,5.93
2018-07-14T13:26:33.155Z,5.77
2018-07-14T13:30:06.460Z,6.00
2018-07-14T13:33:39.786Z,6.33
2018-07-14T13:37:13.031Z,5.83
2018-07-14T13:40:46.300Z,6.10
2018-07-14T13:44:19.541Z,4.97
2018-07-14T13:47:52.532Z,5.80
2018-07-14T13:51:25.551Z,6.10
2018-07-14T13:54:58.794Z,6.00
2018-07-14T13:58:32.028Z,5.77
2018-07-14T14:02:05.469Z,6.33
2018-07-14T14:05:39.624Z,5.83
2018-07-14T14:09:12.872Z,5.73
2018-07-14T14:12:46.136Z,5.47
2018-07-14T14:16:19.427Z,5.80
2018-07-14T14:19:52.672Z,6.47
2018-07-14T14:23:25.917Z,5.20
2018-07-14T14:26:59.188Z,5.63
2018-07-14T14:30:32.425Z,6.30
2018-07-14T14:34:05.671Z,7.17
2018-07-14T14:37:38.936Z,6.23
2018-07-14T14:41:12.167Z,6.60
2018-07-14T14:44:45.442Z,5.80
2018-07-14T14:48:18.760Z,5.27
2018-07-14T14:51:52.001Z,5.93
2018-07-14T14:55:25.240Z,6.03
2018-07-14T14:58:58.489Z,5.40
2018-07-14T15:02:31.795Z,9.73
2018-07-14T15:06:05.056Z,6.10
2018-07-14T15:09:38.310Z,8.63
2018-07-14T15:13:11.550Z,18.90
2018-07-14T15:16:44.544Z,17.20
2018-07-14T15:20:17.571Z,13.53
2018-07-14T15:23:50.828Z,13.23
2018-07-14T15:27:23.862Z,10.40
2018-07-14T15:30:57.149Z,19.37
2018-07-14T15:34:30.399Z,6.33
2018-07-14T15:38:03.649Z,6.30
2018-07-14T15:41:36.932Z,5.60
2018-07-14T15:45:10.161Z,10.70
2018-07-14T15:48:43.386Z,6.90
2018-07-14T15:52:16.628Z,7.33
2018-07-14T15:55:49.646Z,15.00
2018-07-14T15:59:22.925Z,8.10
2018-07-14T16:02:55.911Z,7.70
2018-07-14T16:06:28.923Z,7.20
2018-07-14T16:10:02.192Z,11.20
2018-07-14T16:13:35.480Z,7.67
2018-07-14T16:17:09.048Z,6.70
2018-07-14T16:20:42.331Z,6.83
2018-07-14T16:24:15.572Z,6.67
2018-07-14T16:27:48.856Z,5.07
2018-07-14T16:31:22.127Z,10.63
2018-07-14T16:34:55.355Z,8.17
2018-07-14T16:38:28.594Z,7.00
2018-07-14T16:42:01.828Z,5.33
2018-07-14T16:45:35.148Z,7.43
2018-07-14T16:49:08.379Z,8.53
2018-07-14T16:52:41.688Z,6.80
2018-07-14T16:56:14.955Z,8.27
2018-07-14T16:59:48.201Z,6.90
2018-07-14T17:03:21.404Z,8.87
2018-07-14T17:06:54.662Z,10.63
2018-07-14T17:10:27.925Z,10.93
2018-07-14T17:14:01.265Z,6.60
2018-07-14T17:17:34.420Z,9.00
2018-07-14T17:21:07.777Z,5.70
2018-07-14T17:24:41.007Z,10.60
2018-07-14T17:28:14.277Z,6.27
2018-07-14T17:31:47.524Z,6.67
2018-07-14T17:35:20.510Z,7.40
2018-07-14T17:38:53.736Z,8.50
2018-07-14T17:42:27.007Z,7.57
2018-07-14T17:46:00.326Z,7.20
2018-07-14T17:49:33.563Z,9.30
2018-07-14T17:53:06.792Z,6.73
2018-07-14T17:56:40.036Z,8.37
2018-07-14T18:00:13.416Z,6.87
2018-07-14T18:03:46.386Z,6.00
2018-07-14T18:07:19.613Z,6.67
2018-07-14T18:10:53.244Z,6.73
2018-07-14T18:14:26.500Z,6.47
2018-07-14T18:17:59.753Z,8.10
2018-07-14T18:21:33.012Z,8.30
2018-07-14T18:25:06.312Z,7.70
2018-07-14T18:28:39.544Z,7.40
2018-07-14T18:32:12.781Z,7.80
2018-07-14T18:35:46.027Z,8.40
2018-07-14T18:39:19.265Z,8.10
2018-07-14T18:42:52.508Z,8.13
2018-07-14T18:46:25.736Z,8.30
2018-07-14T18:49:59.801Z,9.70
2018-07-14T18:53:33.047Z,7.53
2018-07-14T18:57:06.302Z,7.50
2018-07-14T19:00:39.760Z,8.30
2018-07-14T19:04:12.997Z,8.70
2018-07-14T19:07:46.224Z,8.40
2018-07-14T19:11:19.472Z,8.43
2018-07-14T19:14:52.785Z,9.30
2018-07-14T19:18:26.041Z,7.83
2018-07-14T19:21:59.295Z,8.90
2018-07-14T19:25:32.556Z,9.00
2018-07-14T19:29:05.559Z,10.50
2018-07-14T19:32:38.789Z,9.80
2018-07-14T19:36:12.016Z,9.17
2018-07-14T19:39:45.279Z,10.90
2018-07-14T19:43:19.504Z,9.70
2018-07-14T19:46:52.756Z,11.00
2018-07-14T19:50:26.022Z,10.20
2018-07-14T19:53:59.289Z,10.80
2018-07-14T19:57:32.521Z,10.93
2018-07-14T20:01:06.045Z,10.87
2018-07-14T20:04:39.291Z,11.50
2018-07-14T20:08:12.516Z,9.93
2018-07-14T20:11:45.824Z,11.70
2018-07-14T20:15:19.104Z,11.90
2018-07-14T20:18:52.341Z,12.23
2018-07-14T20:22:25.602Z,11.53
2018-07-14T20:25:58.850Z,11.80
2018-07-14T20:29:32.094Z,12.60
2018-07-14T20:33:05.332Z,12.30
2018-07-14T20:36:38.575Z,14.33
2018-07-14T20:40:11.822Z,12.63
2018-07-14T20:43:45.080Z,12.90
2018-07-14T20:47:18.359Z,13.30
2018-07-14T20:50:51.329Z,14.30
2018-07-14T20:54:24.580Z,12.80
2018-07-14T20:57:57.825Z,13.40
2018-07-14T21:01:31.071Z,17.30
2018-07-14T21:05:04.324Z,14.70
2018-07-14T21:08:37.641Z,14.13
2018-07-14T21:12:10.913Z,13.57
2018-07-14T21:15:44.202Z,13.00
2018-07-14T21:19:17.452Z,13.33
2018-07-14T21:22:50.703Z,11.53
2018-07-14T21:26:23.952Z,11.43
2018-07-14T21:29:57.216Z,12.43
2018-07-14T21:33:30.512Z,12.73
2018-07-14T21:37:03.781Z,13.77
2018-07-14T21:40:37.015Z,13.50
2018-07-14T21:44:10.264Z,15.17
2018-07-14T21:47:43.607Z,13.90
2018-07-14T21:51:16.839Z,13.50
2018-07-14T21:54:50.120Z,11.60
2018-07-14T21:58:23.358Z,14.40
2018-07-14T22:01:56.345Z,14.50
2018-07-14T22:05:29.592Z,14.47
2018-07-14T22:09:02.844Z,15.23
2018-07-14T22:12:36.100Z,14.03
2018-07-14T22:16:09.364Z,15.13
2018-07-14T22:19:42.344Z,14.43
2018-07-14T22:23:15.628Z,12.93
2018-07-14T22:26:48.872Z,14.97
2018-07-14T22:30:22.132Z,15.20
2018-07-14T22:33:55.388Z,14.90
2018-07-14T22:37:28.623Z,14.07
2018-07-14T22:41:01.877Z,14.30
2018-07-14T22:44:35.103Z,13.60
2018-07-14T22:48:08.353Z,14.90
2018-07-14T22:51:41.695Z,14.00
2018-07-14T22:55:14.939Z,14.67
2018-07-14T22:58:48.305Z,16.10
2018-07-14T23:02:21.588Z,17.50
2018-07-14T23:05:54.825Z,16.07
2018-07-14T23:09:28.044Z,13.77
2018-07-14T23:13:01.285Z,14.97
2018-07-14T23:16:34.627Z,14.97
2018-07-14T23:20:07.881Z,14.30
2018-07-14T23:23:41.118Z,16.00
2018-07-14T23:27:14.371Z,15.13
2018-07-14T23:30:47.637Z,16.27
2018-07-14T23:34:20.873Z,17.37
2018-07-14T23:37:54.127Z,16.90
2018-07-14T23:41:27.395Z,17.50
2018-07-14T23:45:00.663Z,16.40
2018-07-14T23:48:33.892Z,16.60
2018-07-14T23:52:07.141Z,18.13
2018-07-14T23:55:40.404Z,17.93
2018-07-14T23:59:13.631Z,17.80
